Time;durP1;ratioP1;P1;durP2;ratioP2;P2;SDS_P1;SDS_P2;PMS_P1;PMS_P2;Temp;Humidity;BMP_temperature;BMP_pressure;BME280_temperature;BME280_humidity;BME280_pressure;Samples;Min_cycle;Max_cycle;Signal;HPM_P1;HPM_P2
2023/05/17 00:01:49;;;;;;;4.50;1.90;;;6.40;96.10;;;;;;5009821;28;20441;-69
2023/05/17 00:04:17;;;;;;;5.10;1.80;;;6.20;96.60;;;;;;5009364;28;20442;-68
2023/05/17 00:06:45;;;;;;;5.87;1.80;;;6.10;96.70;;;;;;5009672;28;20472;-69
2023/05/17 00:09:13;;;;;;;7.13;2.33;;;6.10;96.10;;;;;;5009609;28;20505;-69
2023/05/17 00:11:41;;;;;;;2.13;1.73;;;6.10;95.70;;;;;;5009341;28;20540;-67
2023/05/17 00:14:11;;;;;;;4.13;2.00;;;6.10;96.20;;;;;;5010191;28;20535;-68
2023/05/17 00:16:39;;;;;;;2.63;2.07;;;6.10;95.70;;;;;;5013148;28;21054;-69
2023/05/17 00:19:08;;;;;;;5.53;1.77;;;6.10;97.10;;;;;;5013372;28;20448;-67
2023/05/17 00:21:36;;;;;;;4.37;2.00;;;6.00;97.50;;;;;;5013141;28;20477;-69
2023/05/17 00:24:05;;;;;;;2.33;2.10;;;5.90;97.20;;;;;;5012811;28;20500;-69
2023/05/17 00:26:33;;;;;;;3.90;2.50;;;5.90;99.20;;;;;;5012752;28;21037;-69
2023/05/17 00:29:01;;;;;;;8.50;2.70;;;5.90;99.90;;;;;;5013462;28;20444;-69
2023/05/17 00:31:30;;;;;;;3.70;2.70;;;5.90;99.90;;;;;;5013135;28;20444;-68
2023/05/17 00:33:58;;;;;;;5.77;2.60;;;5.90;99.90;;;;;;5012478;28;20485;-68
2023/05/17 00:36:26;;;;;;;7.43;2.77;;;5.90;99.90;;;;;;5012803;28;20469;-70
2023/05/17 00:38:54;;;;;;;4.43;2.37;;;5.80;99.90;;;;;;5012664;28;20505;-69
2023/05/17 00:41:22;;;;;;;4.50;2.63;;;5.70;99.90;;;;;;5013235;28;20449;-70
2023/05/17 00:43:50;;;;;;;2.83;2.40;;;5.70;99.90;;;;;;5012421;28;20457;-68
2023/05/17 00:46:18;;;;;;;6.13;2.93;;;5.70;99.90;;;;;;5012701;28;20609;-68
2023/05/17 00:48:47;;;;;;;4.83;3.60;;;5.70;99.90;;;;;;5012512;28;20481;-68
2023/05/17 00:51:18;;;;;;;5.57;3.20;;;5.70;99.90;;;;;;5012952;28;20452;-69
2023/05/17 00:53:46;;;;;;;6.30;2.63;;;5.70;99.90;;;;;;5012142;28;21003;-68
2023/05/17 00:56:14;;;;;;;5.90;2.87;;;5.60;99.90;;;;;;5012274;28;20559;-68
2023/05/17 00:58:43;;;;;;;5.43;2.73;;;5.70;99.90;;;;;;5012226;28;20949;-68
2023/05/17 01:01:11;;;;;;;4.40;3.90;;;5.70;99.90;;;;;;5012097;28;20950;-68
2023/05/17 01:03:39;;;;;;;3.17;2.47;;;5.80;99.90;;;;;;5012412;28;20444;-67
2023/05/17 01:06:09;;;;;;;4.33;2.70;;;5.70;99.90;;;;;;5012264;28;20472;-68
2023/05/17 01:08:37;;;;;;;4.43;2.90;;;5.70;99.90;;;;;;5012529;28;20544;-69
2023/05/17 01:11:14;;;;;;;8.23;2.57;;;5.70;99.90;;;;;;5012159;28;21036;-68
2023/05/17 01:13:52;;;;;;;3.80;2.80;;;5.70;99.90;;;;;;5011984;28;20570;-68
2023/05/17 01:16:27;;;;;;;4.90;2.80;;;5.80;99.90;;;;;;5012261;28;20466;-68
2023/05/17 01:19:02;;;;;;;3.23;2.30;;;5.80;99.90;;;;;;5012295;28;21015;-68
2023/05/17 01:21:46;;;;;;;2.97;2.03;;;5.80;99.90;;;;;;5012322;28;20550;-68
2023/05/17 01:24:26;;;;;;;5.10;2.60;;;5.80;99.90;;;;;;5011476;28;20960;-69
2023/05/17 01:26:56;;;;;;;7.30;2.50;;;5.80;99.90;;;;;;5011313;28;20530;-68
2023/05/17 01:29:26;;;;;;;2.80;2.43;;;5.80;99.80;;;;;;5011678;28;20451;-69
2023/05/17 01:31:56;;;;;;;2.93;2.57;;;5.80;99.90;;;;;;5011945;28;20474;-68
2023/05/17 01:34:27;;;;;;;3.83;2.83;;;5.80;99.90;;;;;;5011088;28;20566;-68
2023/05/17 01:36:56;;;;;;;4.00;2.50;;;5.70;99.90;;;;;;5011634;28;20535;-69
2023/05/17 01:39:24;;;;;;;3.23;2.47;;;5.70;99.90;;;;;;5011837;28;20459;-69
2023/05/17 01:42:00;;;;;;;5.70;3.40;;;5.90;99.90;;;;;;5012051;28;20447;-68
2023/05/17 01:44:37;;;;;;;3.60;2.77;;;5.80;99.90;;;;;;5011640;28;20449;-69
2023/05/17 01:47:11;;;;;;;6.80;2.93;;;5.60;99.90;;;;;;5011693;28;20491;-68
2023/05/17 01:49:41;;;;;;;4.87;2.90;;;5.60;99.90;;;;;;5011676;28;20527;-68
2023/05/17 01:52:15;;;;;;;5.93;2.77;;;5.60;99.90;;;;;;5011744;28;20885;-68
2023/05/17 01:54:48;;;;;;;4.50;2.63;;;5.60;99.90;;;;;;5011658;28;21014;-68
2023/05/17 01:57:20;;;;;;;3.73;3.17;;;5.60;99.90;;;;;;5011172;28;20590;-68
2023/05/17 01:59:51;;;;;;;3.37;2.30;;;5.60;99.90;;;;;;5011660;28;20441;-69
2023/05/17 02:02:21;;;;;;;4.53;2.60;;;5.60;99.90;;;;;;5010385;28;20453;-68
2023/05/17 02:04:50;;;;;;;3.43;2.50;;;5.60;99.90;;;;;;5011414;28;20441;-68
2023/05/17 02:07:18;;;;;;;3.70;2.43;;;5.70;99.90;;;;;;5011305;28;20525;-68
2023/05/17 02:09:46;;;;;;;4.70;3.77;;;5.70;99.90;;;;;;5011396;28;20513;-68
2023/05/17 02:12:14;;;;;;;8.73;3.30;;;5.60;99.90;;;;;;5011470;28;20857;-68
2023/05/17 02:14:44;;;;;;;6.87;2.77;;;5.50;99.90;;;;;;5011255;28;20545;-69
2023/05/17 02:17:12;;;;;;;3.43;2.50;;;5.40;99.90;;;;;;5011381;28;20518;-68
2023/05/17 02:19:40;;;;;;;5.60;3.10;;;5.30;99.90;;;;;;5011297;28;20523;-67
2023/05/17 02:22:08;;;;;;;5.93;2.60;;;5.40;99.90;;;;;;5011313;28;20532;-67
2023/05/17 02:24:36;;;;;;;5.67;2.73;;;5.40;99.90;;;;;;5010641;28;21021;-67
2023/05/17 02:27:04;;;;;;;5.03;2.63;;;5.40;99.90;;;;;;5010830;28;20490;-67
2023/05/17 02:29:34;;;;;;;4.93;3.10;;;5.40;99.90;;;;;;5010710;28;20447;-67
2023/05/17 02:32:05;;;;;;;3.27;2.80;;;5.40;99.90;;;;;;5010809;28;20442;-67
2023/05/17 02:34:33;;;;;;;3.50;2.47;;;5.30;99.90;;;;;;5010451;28;20479;-67
2023/05/17 02:37:01;;;;;;;5.90;2.90;;;5.30;99.90;;;;;;5010680;28;20515;-67
2023/05/17 02:39:29;;;;;;;3.73;2.10;;;5.30;99.90;;;;;;5010838;28;20540;-68
2023/05/17 02:41:57;;;;;;;4.37;2.40;;;5.20;99.90;;;;;;5010499;28;20893;-67
2023/05/17 02:44:25;;;;;;;4.17;2.17;;;5.30;99.90;;;;;;5010326;28;20473;-67
2023/05/17 02:46:52;;;;;;;3.10;2.00;;;5.40;99.90;;;;;;5010720;28;20561;-67
2023/05/17 02:49:22;;;;;;;3.67;2.07;;;5.30;99.90;;;;;;5010860;28;20454;-68
2023/05/17 02:51:50;;;;;;;3.80;2.20;;;5.20;99.90;;;;;;5010403;28;20442;-67
2023/05/17 02:54:18;;;;;;;4.93;1.97;;;5.10;99.90;;;;;;5010274;28;20483;-67
2023/05/17 02:56:46;;;;;;;6.50;2.37;;;4.90;99.90;;;;;;5009979;28;21058;-67
2023/05/17 02:59:14;;;;;;;4.40;2.60;;;5.00;99.90;;;;;;5010786;28;20444;-67
2023/05/17 03:01:42;;;;;;;3.27;2.17;;;5.00;99.90;;;;;;5010824;28;20469;-67
2023/05/17 03:04:09;;;;;;;6.13;2.57;;;4.90;99.90;;;;;;5010239;28;20534;-67
2023/05/17 03:06:39;;;;;;;2.70;2.10;;;4.90;99.90;;;;;;5010683;28;20497;-67
2023/05/17 03:09:07;;;;;;;2.63;2.07;;;4.90;99.90;;;;;;5010356;28;20468;-68
2023/05/17 03:11:35;;;;;;;2.60;2.40;;;4.80;99.90;;;;;;5010213;28;20948;-68
2023/05/17 03:14:03;;;;;;;4.37;2.90;;;4.80;99.90;;;;;;5010146;28;20491;-68
2023/05/17 03:16:31;;;;;;;5.20;3.10;;;4.70;99.90;;;;;;5010691;28;20470;-68
2023/05/17 03:18:59;;;;;;;4.53;2.60;;;4.60;99.90;;;;;;5010019;28;20437;-68
2023/05/17 03:21:27;;;;;;;7.87;3.13;;;4.60;99.90;;;;;;5010331;28;20446;-68
2023/05/17 03:23:56;;;;;;;4.07;2.87;;;4.60;99.90;;;;;;5009950;28;20445;-68
2023/05/17 03:26:26;;;;;;;5.60;2.80;;;4.70;99.90;;;;;;5009842;28;20469;-68
2023/05/17 03:28:54;;;;;;;5.60;2.77;;;4.70;99.90;;;;;;5009862;28;20446;-68
2023/05/17 03:31:22;;;;;;;5.33;2.93;;;4.70;99.90;;;;;;5010055;28;20545;-68
2023/05/17 03:33:50;;;;;;;4.17;2.67;;;4.60;99.90;;;;;;5009913;28;20518;-68
2023/05/17 03:36:18;;;;;;;3.60;2.90;;;4.70;99.90;;;;;;5009822;28;20477;-68
2023/05/17 03:38:46;;;;;;;3.80;2.50;;;4.70;99.90;;;;;;5009957;28;21090;-68
2023/05/17 03:41:15;;;;;;;3.20;2.67;;;4.60;99.90;;;;;;5010092;28;20933;-68
2023/05/17 03:43:43;;;;;;;3.70;2.33;;;4.60;99.90;;;;;;5009685;28;20447;-68
2023/05/17 03:46:11;;;;;;;3.77;3.03;;;4.50;99.90;;;;;;5010408;28;20471;-68
2023/05/17 03:48:39;;;;;;;6.33;3.03;;;4.40;99.90;;;;;;5010337;28;20821;-68
2023/05/17 03:51:08;;;;;;;4.10;2.53;;;4.40;99.90;;;;;;5014696;28;20979;-68
2023/05/17 03:53:39;;;;;;;2.30;2.10;;;4.40;99.90;;;;;;5013932;28;20564;-68
2023/05/17 03:56:07;;;;;;;7.13;3.10;;;4.20;99.90;;;;;;5013895;28;21020;-67
2023/05/17 03:58:37;;;;;;;9.50;3.50;;;4.30;99.90;;;;;;5013611;28;20960;-66
2023/05/17 04:01:05;;;;;;;3.70;2.37;;;4.40;99.90;;;;;;5013400;28;20549;-67
2023/05/17 04:03:33;;;;;;;4.40;2.30;;;4.60;99.90;;;;;;5013438;28;20445;-67
2023/05/17 04:06:05;;;;;;;4.00;2.63;;;4.60;99.90;;;;;;5013858;28;20477;-68
2023/05/17 04:08:33;;;;;;;2.73;2.27;;;4.60;99.90;;;;;;5014194;28;20521;-68
2023/05/17 04:11:08;;;;;;;5.83;2.70;;;4.70;99.90;;;;;;5013847;28;20442;-68
2023/05/17 04:13:38;;;;;;;5.97;3.93;;;4.70;99.90;;;;;;5013941;28;20822;-68
2023/05/17 04:16:07;;;;;;;3.57;2.77;;;4.80;99.90;;;;;;5013582;28;20811;-67
2023/05/17 04:18:36;;;;;;;4.97;3.33;;;4.80;99.90;;;;;;5013394;28;20492;-68
2023/05/17 04:21:05;;;;;;;3.73;2.97;;;5.00;99.90;;;;;;5013231;28;20819;-67
2023/05/17 04:23:35;;;;;;;7.00;3.10;;;5.20;99.90;;;;;;5012918;28;20497;-67
2023/05/17 04:26:03;;;;;;;3.80;2.90;;;5.20;99.90;;;;;;5013136;28;21016;-67
2023/05/17 04:28:33;;;;;;;3.43;2.83;;;5.20;99.90;;;;;;5012530;28;20446;-68
2023/05/17 04:31:07;;;;;;;3.50;2.97;;;5.10;99.90;;;;;;5013157;28;20520;-67
2023/05/17 04:33:35;;;;;;;5.47;2.60;;;5.10;99.90;;;;;;5012660;28;20488;-68
2023/05/17 04:36:03;;;;;;;3.40;2.10;;;5.20;99.90;;;;;;5012595;28;20844;-67
2023/05/17 04:38:31;;;;;;;6.40;2.50;;;5.20;99.90;;;;;;5012748;28;20498;-67
2023/05/17 04:41:03;;;;;;;10.40;3.07;;;5.40;99.90;;;;;;5013069;28;20446;-67
2023/05/17 04:43:32;;;;;;;3.73;3.37;;;5.60;99.90;;;;;;5012539;28;20461;-67
2023/05/17 04:46:00;;;;;;;6.30;2.90;;;5.70;99.90;;;;;;5012584;28;20848;-67
2023/05/17 04:48:31;;;;;;;5.57;3.30;;;5.70;99.90;;;;;;5013634;28;20539;-67
2023/05/17 04:51:02;;;;;;;6.60;3.10;;;5.70;99.90;;;;;;5013502;28;20440;-68
2023/05/17 04:53:31;;;;;;;3.90;2.80;;;5.60;99.90;;;;;;5012539;28;20484;-68
2023/05/17 04:55:59;;;;;;;6.00;2.33;;;5.60;99.90;;;;;;5013567;28;20489;-67
2023/05/17 04:58:27;;;;;;;5.20;2.83;;;5.70;99.90;;;;;;5013055;28;20475;-68
2023/05/17 05:00:55;;;;;;;3.50;2.43;;;5.70;99.90;;;;;;5012250;28;20486;-67
2023/05/17 05:03:23;;;;;;;3.40;2.60;;;5.80;99.90;;;;;;5012436;28;20484;-68
2023/05/17 05:05:52;;;;;;;3.40;2.30;;;5.90;99.90;;;;;;5011242;28;20470;-67
2023/05/17 05:08:20;;;;;;;3.93;2.30;;;6.00;99.90;;;;;;5005294;28;21237;-68
2023/05/17 05:10:50;;;;;;;8.00;3.20;;;6.20;99.70;;;;;;5011937;28;20437;-68
2023/05/17 05:13:18;;;;;;;2.50;2.20;;;6.30;99.40;;;;;;5011660;28;20450;-68
2023/05/17 05:15:46;;;;;;;5.30;2.63;;;6.30;99.20;;;;;;5012073;28;20542;-67
2023/05/17 05:18:14;;;;;;;6.77;2.77;;;6.30;99.30;;;;;;5012148;28;20491;-67
2023/05/17 05:20:44;;;;;;;3.70;2.73;;;6.50;99.50;;;;;;5012237;28;20473;-67
2023/05/17 05:23:13;;;;;;;5.27;2.20;;;6.60;99.30;;;;;;5011560;28;20866;-66
2023/05/17 05:25:43;;;;;;;4.93;2.50;;;6.80;98.90;;;;;;5012030;28;20464;-67
2023/05/17 05:28:11;;;;;;;2.90;2.30;;;6.90;98.00;;;;;;5012192;28;20448;-67
2023/05/17 05:30:39;;;;;;;5.30;2.70;;;6.90;98.40;;;;;;5011691;28;20481;-67
2023/05/17 05:33:07;;;;;;;8.03;3.20;;;6.90;98.10;;;;;;5013035;28;20957;-67
2023/05/17 05:35:36;;;;;;;4.80;2.60;;;7.00;98.30;;;;;;5014479;28;20493;-67
2023/05/17 05:38:03;;;;;;;10.03;4.73;;;7.10;97.50;;;;;;5016142;28;20559;-68
2023/05/17 05:40:33;;;;;;;7.30;2.80;;;7.20;97.80;;;;;;5031652;28;20437;-67
2023/05/17 05:43:01;;;;;;;5.50;2.47;;;7.30;97.50;;;;;;5031513;28;20459;-69
2023/05/17 05:45:29;;;;;;;3.77;2.73;;;7.30;97.10;;;;;;5016737;28;20472;-67
2023/05/17 05:47:57;;;;;;;7.77;2.43;;;7.50;97.20;;;;;;5015087;28;20995;-67
2023/05/17 05:50:25;;;;;;;6.43;3.07;;;7.60;97.00;;;;;;5008613;28;20445;-67
2023/05/17 05:52:53;;;;;;;6.50;2.50;;;7.70;96.90;;;;;;5004068;28;20490;-67
2023/05/17 05:55:35;;;;;;;3.47;2.17;;;7.70;97.00;;;;;;5011747;28;20473;-67
2023/05/17 05:58:04;;;;;;;4.67;2.60;;;7.70;97.10;;;;;;5011582;28;21120;-67
2023/05/17 06:00:32;;;;;;;3.73;2.60;;;7.80;97.30;;;;;;5011514;28;20461;-67
2023/05/17 06:03:00;;;;;;;3.60;2.30;;;7.80;97.90;;;;;;5011212;28;20446;-67
2023/05/17 06:05:28;;;;;;;6.13;2.80;;;7.80;96.00;;;;;;5011219;28;20556;-68
2023/05/17 06:07:56;;;;;;;4.10;2.30;;;7.80;95.00;;;;;;5011149;28;20472;-68
2023/05/17 06:10:24;;;;;;;9.40;2.70;;;7.90;94.70;;;;;;5011386;28;20473;-69
2023/05/17 06:12:53;;;;;;;6.07;2.57;;;8.00;94.60;;;;;;5010434;28;20561;-69
2023/05/17 06:15:21;;;;;;;3.20;2.37;;;8.10;97.40;;;;;;5010931;28;20556;-69
2023/05/17 06:17:49;;;;;;;7.37;2.60;;;8.30;98.60;;;;;;5011048;28;20964;-69
2023/05/17 06:20:18;;;;;;;5.47;2.23;;;8.30;95.30;;;;;;5011072;28;20454;-69
2023/05/17 06:22:45;;;;;;;6.87;3.40;;;8.40;95.00;;;;;;5010798;28;20449;-69
2023/05/17 06:25:13;;;;;;;5.10;2.70;;;8.60;93.90;;;;;;5010739;28;20476;-69
2023/05/17 06:27:42;;;;;;;6.77;2.60;;;8.70;92.50;;;;;;5011265;28;20445;-69
2023/05/17 06:30:13;;;;;;;3.00;2.13;;;8.80;91.10;;;;;;5011083;28;20827;-69
2023/05/17 06:32:41;;;;;;;7.17;2.67;;;8.80;90.80;;;;;;5010581;28;21004;-69
2023/05/17 06:35:10;;;;;;;5.70;2.70;;;8.80;90.20;;;;;;5010548;28;20900;-69
2023/05/17 06:37:38;;;;;;;8.43;3.00;;;8.90;89.50;;;;;;5010618;28;20500;-69
2023/05/17 06:40:09;;;;;;;7.20;3.20;;;8.90;88.30;;;;;;5010984;28;20957;-69
2023/05/17 06:42:44;;;;;;;5.10;2.60;;;8.90;87.40;;;;;;5010329;28;20477;-69
2023/05/17 06:45:14;;;;;;;7.30;2.70;;;9.00;88.80;;;;;;5010673;28;20529;-69
2023/05/17 06:47:42;;;;;;;7.73;3.33;;;9.10;88.90;;;;;;5010723;28;20504;-69
2023/05/17 06:50:10;;;;;;;9.17;2.83;;;9.20;87.80;;;;;;5010575;28;20450;-69
2023/05/17 06:52:39;;;;;;;3.80;2.73;;;9.30;86.20;;;;;;5010388;28;20474;-69
2023/05/17 06:55:08;;;;;;;7.13;2.30;;;9.40;85.90;;;;;;5010640;28;20445;-69
2023/05/17 06:57:36;;;;;;;6.97;3.00;;;9.50;86.00;;;;;;5010458;28;20862;-69
2023/05/17 07:00:09;;;;;;;4.80;3.27;;;9.50;84.40;;;;;;5010504;28;20449;-69
2023/05/17 07:02:38;;;;;;;6.53;2.90;;;9.50;85.20;;;;;;5009953;28;20988;-69
2023/05/17 07:05:07;;;;;;;6.90;2.60;;;9.60;84.50;;;;;;5010249;28;20550;-69
2023/05/17 07:07:35;;;;;;;10.20;3.30;;;9.60;83.20;;;;;;5010201;28;20449;-69
2023/05/17 07:10:04;;;;;;;6.97;3.60;;;9.60;85.00;;;;;;5010307;28;20495;-69
2023/05/17 07:12:33;;;;;;;6.17;2.90;;;9.60;85.20;;;;;;5009987;28;20458;-68
2023/05/17 07:15:01;;;;;;;3.87;3.13;;;9.60;85.80;;;;;;5009924;28;20450;-69
2023/05/17 07:17:29;;;;;;;8.13;3.07;;;9.60;86.70;;;;;;5009920;28;20555;-69
2023/05/17 07:19:58;;;;;;;6.47;3.07;;;9.70;85.30;;;;;;5009942;28;20505;-69
2023/05/17 07:22:26;;;;;;;6.20;3.03;;;9.70;85.60;;;;;;5009839;28;20443;-69
2023/05/17 07:24:54;;;;;;;5.70;3.17;;;9.70;87.90;;;;;;5009259;28;20449;-69
2023/05/17 07:27:23;;;;;;;5.03;3.33;;;9.70;86.70;;;;;;5009980;28;20521;-69
2023/05/17 07:29:51;;;;;;;9.60;3.63;;;9.80;86.70;;;;;;5009794;28;20508;-69
2023/05/17 07:32:19;;;;;;;6.10;3.30;;;9.90;87.00;;;;;;5009888;28;20994;-69
2023/05/17 07:34:47;;;;;;;4.13;2.63;;;10.10;85.30;;;;;;5009999;28;20439;-70
2023/05/17 07:37:19;;;;;;;5.47;3.47;;;10.30;83.50;;;;;;5009935;28;20491;-69
2023/05/17 07:39:47;;;;;;;7.13;3.50;;;10.40;81.50;;;;;;5010272;28;20443;-69
2023/05/17 07:42:15;;;;;;;3.90;3.47;;;10.40;83.10;;;;;;5010074;28;20447;-69
2023/05/17 07:44:43;;;;;;;6.47;3.90;;;10.50;82.20;;;;;;5010132;28;20462;-69
2023/05/17 07:47:14;;;;;;;8.27;3.43;;;10.60;82.30;;;;;;5010215;28;20604;-69
2023/05/17 07:49:42;;;;;;;6.30;2.80;;;10.60;78.80;;;;;;5010148;28;20441;-69
2023/05/17 07:52:10;;;;;;;5.03;4.10;;;10.70;80.10;;;;;;5009310;28;21240;-69
2023/05/17 07:54:39;;;;;;;7.53;4.20;;;10.80;79.70;;;;;;5009160;28;20443;-68
2023/05/17 07:57:07;;;;;;;4.50;3.40;;;10.90;79.20;;;;;;5014636;28;20488;-69
2023/05/17 07:59:36;;;;;;;10.83;3.57;;;11.10;79.00;;;;;;5020993;28;20954;-70
2023/05/17 08:02:04;;;;;;;6.88;3.88;;;11.30;75.70;;;;;;5013284;28;20438;-69
2023/05/17 08:04:32;;;;;;;7.40;3.50;;;11.40;75.20;;;;;;5025655;28;20202;-68
2023/05/17 08:07:00;;;;;;;4.80;3.40;;;11.50;76.30;;;;;;5016204;28;20488;-68
2023/05/17 08:09:28;;;;;;;7.83;3.90;;;11.70;76.00;;;;;;5019570;28;20454;-69
2023/05/17 08:11:57;;;;;;;8.13;3.50;;;12.10;75.40;;;;;;5007537;28;20451;-68
2023/05/17 08:14:26;;;;;;;8.00;3.50;;;12.30;73.90;;;;;;5013188;28;20439;-69
2023/05/17 08:16:53;;;;;;;6.50;3.00;;;12.40;72.90;;;;;;5012079;28;20473;-69
2023/05/17 08:19:21;;;;;;;5.90;3.53;;;12.30;72.40;;;;;;5008975;28;20449;-69
2023/05/17 08:21:49;;;;;;;6.40;4.10;;;12.20;72.70;;;;;;5016712;28;20450;-69
2023/05/17 08:24:17;;;;;;;7.70;3.90;;;12.30;70.30;;;;;;5023016;28;20449;-69
2023/05/17 08:26:45;;;;;;;5.67;3.77;;;12.30;73.20;;;;;;5014076;28;20532;-69
2023/05/17 08:29:15;;;;;;;6.77;3.60;;;12.20;71.40;;;;;;5013806;28;20452;-69
2023/05/17 08:31:44;;;;;;;6.60;3.10;;;12.20;71.50;;;;;;5011027;28;20446;-69
2023/05/17 08:34:14;;;;;;;7.00;2.60;;;12.40;71.40;;;;;;5019597;28;20525;-69
2023/05/17 08:36:43;;;;;;;5.17;3.30;;;12.60;69.50;;;;;;5014838;28;20573;-69
2023/05/17 08:39:12;;;;;;;6.33;3.60;;;12.50;69.20;;;;;;5014389;28;20453;-68
2023/05/17 08:41:40;;;;;;;4.70;3.83;;;12.70;70.30;;;;;;5015458;28;20505;-68
2023/05/17 08:44:09;;;;;;;4.67;3.30;;;12.70;69.40;;;;;;5013556;28;20447;-69
2023/05/17 08:46:40;;;;;;;9.93;4.10;;;13.00;69.70;;;;;;5014245;28;20463;-69
2023/05/17 08:49:11;;;;;;;9.07;4.97;;;13.10;69.20;;;;;;5013254;28;20937;-69
2023/05/17 08:51:42;;;;;;;4.87;3.53;;;13.40;68.70;;;;;;5017831;28;20454;-69
2023/05/17 08:54:10;;;;;;;5.47;3.20;;;13.40;66.50;;;;;;5003282;28;20483;-68
2023/05/17 08:56:41;;;;;;;6.63;3.67;;;13.40;66.60;;;;;;5020240;28;20569;-69
2023/05/17 08:59:10;;;;;;;4.73;2.77;;;13.70;68.30;;;;;;5017840;28;20455;-69
2023/05/17 09:01:42;;;;;;;4.20;3.30;;;13.50;66.90;;;;;;5019727;28;20443;-68
2023/05/17 09:04:10;;;;;;;5.23;3.30;;;13.20;66.10;;;;;;5012385;28;20441;-68
2023/05/17 09:06:38;;;;;;;6.30;5.00;;;13.10;65.10;;;;;;5012517;28;20472;-69
2023/05/17 09:09:07;;;;;;;5.10;3.37;;;13.40;66.00;;;;;;5012283;28;20451;-69
2023/05/17 09:11:35;;;;;;;7.80;3.73;;;13.40;64.20;;;;;;5011767;28;20493;-68
2023/05/17 09:14:04;;;;;;;6.70;3.70;;;13.30;63.40;;;;;;5011712;28;20453;-69
2023/05/17 09:16:33;;;;;;;5.43;2.73;;;13.20;65.80;;;;;;5012301;28;20518;-69
2023/05/17 09:19:04;;;;;;;7.40;3.53;;;13.10;63.20;;;;;;5012271;28;20439;-69
2023/05/17 09:21:33;;;;;;;6.70;3.93;;;13.00;66.20;;;;;;5012383;28;20943;-68
2023/05/17 09:24:01;;;;;;;4.83;3.43;;;13.50;65.40;;;;;;5012078;28;20450;-69
2023/05/17 09:26:41;;;;;;;10.17;3.57;;;14.00;64.20;;;;;;5012132;28;20464;-69
2023/05/17 09:29:10;;;;;;;4.63;3.70;;;14.10;60.90;;;;;;5012219;28;20452;-68
2023/05/17 09:31:39;;;;;;;4.43;3.10;;;14.10;58.70;;;;;;5012223;28;20445;-68
2023/05/17 09:34:08;;;;;;;7.30;3.60;;;14.20;59.30;;;;;;5011647;28;20484;-68
2023/05/17 09:36:42;;;;;;;5.40;3.03;;;14.50;58.60;;;;;;5011909;28;20902;-69
2023/05/17 09:39:13;;;;;;;5.73;3.97;;;14.30;56.70;;;;;;5011961;28;20959;-67
2023/05/17 09:41:43;;;;;;;5.10;3.30;;;14.20;58.90;;;;;;5012229;28;20437;-69
2023/05/17 09:44:12;;;;;;;4.87;2.83;;;14.40;57.30;;;;;;5011750;28;20817;-69
2023/05/17 09:46:42;;;;;;;4.73;2.87;;;14.90;57.20;;;;;;5010914;28;20476;-68
2023/05/17 09:49:12;;;;;;;5.80;3.67;;;14.90;55.50;;;;;;5011862;28;20542;-69
2023/05/17 09:51:42;;;;;;;4.77;3.30;;;14.70;55.80;;;;;;5011712;28;20519;-70
2023/05/17 09:54:10;;;;;;;10.10;3.97;;;14.70;55.70;;;;;;5011839;28;20832;-68
2023/05/17 09:56:39;;;;;;;4.70;3.17;;;14.60;55.60;;;;;;5011562;28;20462;-69
2023/05/17 09:59:12;;;;;;;4.20;2.87;;;14.40;55.50;;;;;;5011927;28;20972;-69
2023/05/17 10:01:41;;;;;;;6.00;3.13;;;14.20;56.10;;;;;;5011945;28;20448;-69
2023/05/17 10:04:11;;;;;;;5.70;3.40;;;14.00;55.20;;;;;;5011540;28;20512;-70
2023/05/17 10:06:43;;;;;;;4.50;3.30;;;14.20;58.80;;;;;;5012009;28;20453;-69
2023/05/17 10:09:23;;;;;;;4.77;2.93;;;14.40;55.70;;;;;;5011900;28;20430;-69
2023/05/17 10:11:55;;;;;;;6.23;3.80;;;14.20;55.40;;;;;;5011300;28;20448;-71
2023/05/17 10:14:30;;;;;;;5.27;3.00;;;14.10;55.90;;;;;;5011177;28;20448;-68
2023/05/17 10:16:58;;;;;;;4.20;3.00;;;14.10;54.70;;;;;;5011292;28;20461;-68
2023/05/17 10:19:28;;;;;;;4.60;2.90;;;14.10;55.20;;;;;;5011480;28;20452;-69
2023/05/17 10:21:57;;;;;;;8.33;3.80;;;14.40;55.80;;;;;;5011042;28;20977;-69
2023/05/17 10:24:46;;;;;;;6.17;3.57;;;14.70;55.50;;;;;;5010837;28;20478;-69
2023/05/17 10:27:15;;;;;;;6.63;3.23;;;14.80;55.80;;;;;;5010941;28;20840;-69
2023/05/17 10:29:44;;;;;;;4.47;2.80;;;15.30;54.80;;;;;;5011144;28;20451;-69
2023/05/17 10:32:20;;;;;;;5.43;2.90;;;15.30;54.00;;;;;;5011080;28;20442;-68
2023/05/17 10:34:51;;;;;;;5.33;3.30;;;15.00;55.00;;;;;;5010747;28;20442;-69
2023/05/17 10:37:38;;;;;;;4.63;2.93;;;15.00;55.20;;;;;;5010715;28;20510;-69
2023/05/17 10:40:11;;;;;;;7.37;3.90;;;14.80;55.20;;;;;;5010708;28;20974;-68
2023/05/17 10:42:42;;;;;;;6.13;3.50;;;14.80;54.50;;;;;;5010462;28;20934;-68
2023/05/17 10:45:12;;;;;;;6.40;3.37;;;14.90;54.60;;;;;;5010661;28;20939;-68
2023/05/17 10:47:41;;;;;;;5.33;3.50;;;15.00;53.50;;;;;;5010589;28;20452;-68
2023/05/17 10:50:13;;;;;;;8.60;3.57;;;15.10;53.70;;;;;;5010566;28;20544;-69
2023/05/17 10:52:47;;;;;;;5.23;3.00;;;15.00;54.00;;;;;;5010499;28;21388;-69
2023/05/17 10:55:19;;;;;;;3.50;3.07;;;15.30;54.00;;;;;;5010565;28;20445;-69
2023/05/17 10:58:11;;;;;;;4.50;3.07;;;15.30;54.60;;;;;;5010210;28;20521;-68
2023/05/17 11:00:40;;;;;;;4.27;3.17;;;15.10;53.50;;;;;;5010407;28;20493;-69
2023/05/17 11:03:13;;;;;;;5.07;3.80;;;14.80;54.30;;;;;;5010341;28;20495;-68
2023/05/17 11:05:44;;;;;;;4.97;3.77;;;14.90;54.00;;;;;;5010822;28;21057;-68
2023/05/17 11:08:14;;;;;;;5.30;3.10;;;14.90;55.10;;;;;;5010454;28;20999;-70
2023/05/17 11:11:10;;;;;;;7.33;3.27;;;14.80;56.00;;;;;;5010657;28;20437;-68
2023/05/17 11:13:46;;;;;;;8.67;3.30;;;14.40;56.30;;;;;;5005487;28;20522;-68
2023/05/17 11:16:16;;;;;;;9.60;3.60;;;14.20;58.20;;;;;;5010287;28;20477;-68
2023/05/17 11:18:49;;;;;;;6.97;3.77;;;13.70;57.30;;;;;;5010222;28;20501;-68
2023/05/17 11:21:20;;;;;;;3.67;3.10;;;13.50;57.30;;;;;;5010069;28;20811;-69
2023/05/17 11:23:53;;;;;;;5.27;3.17;;;13.40;57.70;;;;;;5010082;28;20482;-69
2023/05/17 11:26:23;;;;;;;7.10;3.50;;;13.40;57.70;;;;;;5010218;28;20525;-68
2023/05/17 11:29:01;;;;;;;6.20;3.43;;;13.40;58.10;;;;;;5010224;28;20543;-70
2023/05/17 11:31:31;;;;;;;6.57;3.20;;;13.50;59.50;;;;;;5010194;28;20511;-69
2023/05/17 11:33:59;;;;;;;4.37;3.60;;;13.80;59.10;;;;;;5010293;28;20446;-68
2023/05/17 11:36:28;;;;;;;5.80;3.40;;;14.00;58.70;;;;;;5010304;28;20904;-70
2023/05/17 11:39:13;;;;;;;5.57;3.13;;;14.10;56.90;;;;;;5010743;28;20488;-69
2023/05/17 11:41:49;;;;;;;6.07;3.20;;;14.00;56.70;;;;;;5010312;28;20446;-69
2023/05/17 11:44:24;;;;;;;7.57;3.80;;;13.80;56.70;;;;;;5022330;28;20444;-70
2023/05/17 11:46:53;;;;;;;5.40;3.30;;;13.70;57.20;;;;;;5009655;28;20494;-68
2023/05/17 11:49:22;;;;;;;4.40;2.70;;;13.90;56.40;;;;;;5009969;28;20557;-69
2023/05/17 11:52:04;;;;;;;5.10;3.13;;;13.90;56.80;;;;;;5009958;28;20511;-69
2023/05/17 11:54:33;;;;;;;6.43;2.93;;;13.70;56.50;;;;;;5009109;28;20832;-68
2023/05/17 11:57:02;;;;;;;5.27;3.40;;;13.40;57.20;;;;;;5009687;28;20543;-69
2023/05/17 11:59:38;;;;;;;4.70;3.43;;;13.40;58.40;;;;;;5009643;28;20485;-68
2023/05/17 12:02:06;;;;;;;7.97;3.10;;;13.50;58.20;;;;;;5009876;28;20490;-69
2023/05/17 12:04:37;;;;;;;6.50;3.70;;;13.70;57.70;;;;;;5009468;28;20471;-71
2023/05/17 12:07:09;;;;;;;7.57;3.83;;;13.60;56.60;;;;;;5009537;28;20464;-70
2023/05/17 12:09:38;;;;;;;4.37;2.80;;;13.70;58.30;;;;;;5009935;28;20443;-69
2023/05/17 12:12:07;;;;;;;7.10;3.60;;;13.90;56.50;;;;;;5014717;28;20461;-69
2023/05/17 12:14:35;;;;;;;3.23;2.80;;;13.90;56.80;;;;;;5013225;28;21287;-69
2023/05/17 12:17:07;;;;;;;5.83;3.20;;;13.80;55.70;;;;;;5007859;28;20964;-70
2023/05/17 12:19:35;;;;;;;5.67;3.80;;;13.90;55.80;;;;;;4994759;28;20513;-71
2023/05/17 12:22:11;;;;;;;5.07;3.30;;;14.10;56.50;;;;;;5009210;28;20448;-69
2023/05/17 12:24:40;;;;;;;5.40;3.50;;;14.30;56.90;;;;;;5005885;28;20511;-72
2023/05/17 12:27:09;;;;;;;8.23;4.60;;;14.60;55.80;;;;;;5005886;28;20549;-68
2023/05/17 12:29:38;;;;;;;5.33;3.40;;;14.60;55.90;;;;;;5006392;28;20507;-69
2023/05/17 12:32:08;;;;;;;4.50;3.10;;;14.30;55.50;;;;;;5006882;28;20453;-70
2023/05/17 12:34:36;;;;;;;7.70;3.90;;;14.20;57.40;;;;;;5003077;28;20531;-70
2023/05/17 12:37:09;;;;;;;7.17;3.80;;;14.20;57.70;;;;;;4999780;28;20892;-70
2023/05/17 12:39:38;;;;;;;6.67;3.10;;;13.90;56.80;;;;;;5003579;28;20861;-71
2023/05/17 12:42:07;;;;;;;4.80;3.47;;;13.80;59.10;;;;;;5002454;28;20955;-72
2023/05/17 12:44:36;;;;;;;5.17;2.97;;;13.80;59.60;;;;;;5001160;28;20445;-70
2023/05/17 12:47:04;;;;;;;4.50;2.70;;;13.80;60.00;;;;;;5004160;28;20468;-72
2023/05/17 12:49:38;;;;;;;5.77;3.60;;;13.50;58.60;;;;;;5002264;28;20531;-71
2023/05/17 12:52:06;;;;;;;6.30;3.83;;;13.50;58.80;;;;;;5001122;28;20508;-71
2023/05/17 12:54:35;;;;;;;6.47;3.90;;;13.30;60.10;;;;;;4992648;28;20447;-70
2023/05/17 12:57:14;;;;;;;4.93;3.87;;;13.30;59.70;;;;;;4993228;28;20472;-69
2023/05/17 12:59:49;;;;;;;6.33;3.27;;;13.20;61.70;;;;;;4992845;28;20472;-72
2023/05/17 13:02:20;;;;;;;5.80;3.00;;;13.40;60.70;;;;;;4993134;28;20456;-70
2023/05/17 13:04:48;;;;;;;5.10;3.23;;;13.50;58.50;;;;;;4992955;28;20445;-70
2023/05/17 13:07:22;;;;;;;5.40;2.83;;;13.70;58.40;;;;;;4992657;28;20481;-70